createdAt,value
2023-03-13T00:09:19.939Z,15.10
2023-03-13T00:29:39.326Z,15.77
2023-03-13T00:39:49.533Z,15.30
2023-03-13T00:50:04.045Z,15.70
2023-03-13T01:00:09.534Z,14.35
2023-03-13T01:10:14.423Z,15.00
2023-03-13T01:20:31.755Z,14.50
2023-03-13T01:30:36.767Z,15.88
2023-03-13T01:40:44.082Z,16.30
2023-03-13T01:51:02.654Z,15.40
2023-03-13T02:01:08.680Z,15.93
2023-03-13T02:11:20.939Z,18.40
2023-03-13T02:21:46.769Z,19.52
2023-03-13T02:32:03.084Z,21.80
2023-03-13T02:42:08.620Z,23.20
2023-03-13T02:52:39.875Z,20.42
2023-03-13T03:02:45.759Z,17.98
2023-03-13T03:12:52.057Z,17.70
2023-03-13T03:23:06.631Z,14.90
2023-03-13T03:33:11.168Z,15.48
2023-03-13T03:43:16.683Z,14.40
2023-03-13T03:53:21.467Z,16.00
2023-03-13T15:18:28.255Z,11.48
2023-03-13T15:28:33.555Z,9.75
2023-03-13T15:38:48.650Z,10.48
2023-03-13T15:49:18.007Z,11.73
2023-03-13T15:59:30.396Z,11.15
2023-03-13T16:09:34.764Z,10.82
2023-03-13T16:19:45.050Z,7.30
2023-03-13T16:29:49.318Z,9.13
2023-03-13T16:39:53.846Z,7.90
2023-03-13T16:50:56.103Z,9.85
2023-03-13T17:01:06.144Z,6.05
2023-03-13T17:11:17.941Z,5.45
2023-03-13T17:21:27.533Z,4.25
2023-03-13T17:31:37.896Z,5.13
2023-03-13T17:41:52.998Z,5.60
2023-03-13T17:52:03.533Z,5.70
2023-03-13T18:02:18.413Z,5.97
2023-03-13T18:12:32.701Z,5.68
2023-03-13T18:22:37.404Z,5.27
2023-03-13T18:32:43.077Z,5.57
2023-03-13T18:42:47.561Z,6.18
2023-03-13T18:52:56.984Z,5.32
2023-03-13T19:03:01.729Z,6.68
2023-03-13T19:13:12.174Z,7.55
2023-03-13T19:23:17.033Z,7.78
2023-03-13T19:33:21.569Z,7.97
2023-03-13T19:43:26.771Z,7.53
2023-03-13T19:53:32.431Z,6.18
2023-03-13T20:03:41.950Z,5.35
2023-03-13T20:13:47.114Z,7.30
2023-03-13T20:34:08.971Z,7.53
2023-03-13T20:44:14.255Z,7.28
2023-03-13T20:54:20.512Z,8.02
2023-03-13T21:04:30.624Z,7.60
2023-03-13T21:14:37.317Z,7.68
2023-03-13T21:24:42.376Z,6.05
2023-03-13T21:34:47.536Z,6.20
2023-03-13T21:44:52.331Z,5.57
2023-03-13T21:55:03.497Z,5.35
2023-03-13T22:05:10.026Z,6.25
2023-03-13T22:15:14.958Z,5.57
2023-03-13T22:25:24.457Z,6.05
2023-03-13T22:45:34.940Z,5.47
2023-03-13T22:55:45.278Z,5.13
2023-03-13T23:05:50.105Z,5.30
2023-03-13T23:15:56.064Z,4.65
2023-03-13T23:26:02.682Z,4.05
2023-03-13T23:36:09.308Z,4.40
